sensor_id;sensor_type;location;lat;lon;timestamp;pressure;altitude;pressure_sealevel;temperature;humidity
70909;BME280;58554;52.006;5.926;2023-05-09T00:01:28;100939.84;;;19.10;63.27
70909;BME280;58554;52.006;5.926;2023-05-09T00:03:54;100931.09;;;19.08;63.45
70909;BME280;58554;52.006;5.926;2023-05-09T00:06:21;100935.59;;;19.07;63.44
70909;BME280;58554;52.006;5.926;2023-05-09T00:08:50;100934.78;;;19.07;63.49
70909;BME280;58554;52.006;5.926;2023-05-09T00:11:16;100931.38;;;19.05;63.35
70909;BME280;58554;52.006;5.926;2023-05-09T00:13:43;100930.50;;;19.04;63.39
70909;BME280;58554;52.006;5.926;2023-05-09T00:16:09;100933.34;;;19.02;63.46
70909;BME280;58554;52.006;5.926;2023-05-09T00:18:37;100929.78;;;19.02;63.54
70909;BME280;58554;52.006;5.926;2023-05-09T00:21:03;100925.44;;;19.01;63.55
70909;BME280;58554;52.006;5.926;2023-05-09T00:23:30;100921.09;;;19.00;63.67
70909;BME280;58554;52.006;5.926;2023-05-09T00:26:00;100913.03;;;19.00;63.73
70909;BME280;58554;52.006;5.926;2023-05-09T00:28:26;100908.53;;;19.00;63.82
70909;BME280;58554;52.006;5.926;2023-05-09T00:30:53;100897.81;;;19.00;63.93
70909;BME280;58554;52.006;5.926;2023-05-09T00:33:19;100898.50;;;19.02;63.98
70909;BME280;58554;52.006;5.926;2023-05-09T00:35:47;100895.81;;;19.02;63.84
70909;BME280;58554;52.006;5.926;2023-05-09T00:38:13;100892.16;;;19.04;63.96
70909;BME280;58554;52.006;5.926;2023-05-09T00:40:39;100891.19;;;19.05;63.97
70909;BME280;58554;52.006;5.926;2023-05-09T00:43:09;100892.84;;;19.06;63.93
70909;BME280;58554;52.006;5.926;2023-05-09T00:45:35;100883.13;;;19.05;63.93
70909;BME280;58554;52.006;5.926;2023-05-09T00:48:03;100888.63;;;19.03;64.07
70909;BME280;58554;52.006;5.926;2023-05-09T00:50:31;100874.38;;;19.02;64.13
70909;BME280;58554;52.006;5.926;2023-05-09T00:52:57;100882.25;;;19.04;64.03
70909;BME280;58554;52.006;5.926;2023-05-09T00:55:25;100871.53;;;19.04;64.14
70909;BME280;58554;52.006;5.926;2023-05-09T00:57:54;100878.75;;;19.04;64.15
70909;BME280;58554;52.006;5.926;2023-05-09T01:00:23;100875.34;;;19.01;64.19
70909;BME280;58554;52.006;5.926;2023-05-09T01:02:52;100872.53;;;19.03;64.10
70909;BME280;58554;52.006;5.926;2023-05-09T01:05:21;100870.56;;;19.05;64.03
70909;BME280;58554;52.006;5.926;2023-05-09T01:08:01;100868.72;;;19.06;64.00
70909;BME280;58554;52.006;5.926;2023-05-09T01:10:38;100865.09;;;19.07;64.15
70909;BME280;58554;52.006;5.926;2023-05-09T01:13:17;100864.81;;;19.00;63.93
70909;BME280;58554;52.006;5.926;2023-05-09T01:16:00;100857.16;;;18.95;64.03
70909;BME280;58554;52.006;5.926;2023-05-09T01:18:37;100855.75;;;18.91;64.08
70909;BME280;58554;52.006;5.926;2023-05-09T01:21:10;100861.53;;;18.87;64.09
70909;BME280;58554;52.006;5.926;2023-05-09T01:24:01;100844.03;;;18.83;64.29
70909;BME280;58554;52.006;5.926;2023-05-09T01:26:44;100847.16;;;18.78;64.42
70909;BME280;58554;52.006;5.926;2023-05-09T01:29:43;100834.19;;;18.73;64.61
70909;BME280;58554;52.006;5.926;2023-05-09T01:32:13;100837.94;;;18.71;64.55
70909;BME280;58554;52.006;5.926;2023-05-09T01:34:44;100834.56;;;18.69;64.46
70909;BME280;58554;52.006;5.926;2023-05-09T01:37:14;100831.88;;;18.69;64.71
70909;BME280;58554;52.006;5.926;2023-05-09T01:39:46;100836.53;;;18.67;64.78
70909;BME280;58554;52.006;5.926;2023-05-09T01:42:19;100833.84;;;18.67;64.70
70909;BME280;58554;52.006;5.926;2023-05-09T01:44:51;100832.28;;;18.64;64.59
70909;BME280;58554;52.006;5.926;2023-05-09T01:47:20;100828.06;;;18.61;64.84
70909;BME280;58554;52.006;5.926;2023-05-09T01:49:50;100827.09;;;18.63;64.89
70909;BME280;58554;52.006;5.926;2023-05-09T01:52:20;100825.38;;;18.61;64.97
70909;BME280;58554;52.006;5.926;2023-05-09T01:54:51;100827.22;;;18.61;65.00
70909;BME280;58554;52.006;5.926;2023-05-09T01:57:19;100830.72;;;18.61;65.14
70909;BME280;58554;52.006;5.926;2023-05-09T01:59:51;100837.09;;;18.60;65.37
70909;BME280;58554;52.006;5.926;2023-05-09T02:02:20;100825.38;;;18.61;65.21
70909;BME280;58554;52.006;5.926;2023-05-09T02:04:49;100815.50;;;18.62;65.23
70909;BME280;58554;52.006;5.926;2023-05-09T02:07:16;100810.31;;;18.60;65.22
70909;BME280;58554;52.006;5.926;2023-05-09T02:09:44;100800.56;;;18.59;65.25
70909;BME280;58554;52.006;5.926;2023-05-09T02:12:12;100805.78;;;18.61;65.20
70909;BME280;58554;52.006;5.926;2023-05-09T02:14:39;100801.41;;;18.60;65.60
70909;BME280;58554;52.006;5.926;2023-05-09T02:17:08;100806.75;;;18.60;65.60
70909;BME280;58554;52.006;5.926;2023-05-09T02:19:35;100792.66;;;18.58;65.44
70909;BME280;58554;52.006;5.926;2023-05-09T02:22:02;100804.25;;;18.58;65.53
70909;BME280;58554;52.006;5.926;2023-05-09T02:24:30;100798.88;;;18.58;65.60
70909;BME280;58554;52.006;5.926;2023-05-09T02:26:58;100793.53;;;18.58;65.42
70909;BME280;58554;52.006;5.926;2023-05-09T02:29:30;100793.53;;;18.58;65.58
70909;BME280;58554;52.006;5.926;2023-05-09T02:32:01;100790.84;;;18.58;65.50
70909;BME280;58554;52.006;5.926;2023-05-09T02:34:35;100784.63;;;18.58;65.51
70909;BME280;58554;52.006;5.926;2023-05-09T02:37:03;100790.84;;;18.58;65.40
70909;BME280;58554;52.006;5.926;2023-05-09T02:39:31;100781.81;;;18.59;65.64
70909;BME280;58554;52.006;5.926;2023-05-09T02:42:04;100783.78;;;18.57;65.81
70909;BME280;58554;52.006;5.926;2023-05-09T02:44:33;100782.94;;;18.57;65.47
70909;BME280;58554;52.006;5.926;2023-05-09T02:47:00;100781.25;;;18.56;65.69
70909;BME280;58554;52.006;5.926;2023-05-09T02:49:28;100784.09;;;18.54;65.43
70909;BME280;58554;52.006;5.926;2023-05-09T02:51:57;100782.66;;;18.50;65.60
70909;BME280;58554;52.006;5.926;2023-05-09T02:54:24;100778.41;;;18.48;65.77
70909;BME280;58554;52.006;5.926;2023-05-09T02:56:50;100780.25;;;18.47;65.62
70909;BME280;58554;52.006;5.926;2023-05-09T02:59:18;100770.81;;;18.43;65.57
70909;BME280;58554;52.006;5.926;2023-05-09T03:01:45;100778.84;;;18.43;65.64
70909;BME280;58554;52.006;5.926;2023-05-09T03:04:12;100765.16;;;18.36;65.77
70909;BME280;58554;52.006;5.926;2023-05-09T03:06:38;100767.84;;;18.36;65.79
70909;BME280;58554;52.006;5.926;2023-05-09T03:09:07;100756.44;;;18.34;65.73
70909;BME280;58554;52.006;5.926;2023-05-09T03:11:34;100765.28;;;18.35;65.93
70909;BME280;58554;52.006;5.926;2023-05-09T03:14:01;100762.91;;;18.32;65.65
70909;BME280;58554;52.006;5.926;2023-05-09T03:16:28;100760.22;;;18.32;65.89
70909;BME280;58554;52.006;5.926;2023-05-09T03:18:54;100756.72;;;18.31;65.77
70909;BME280;58554;52.006;5.926;2023-05-09T03:21:21;100754.88;;;18.32;65.89
70909;BME280;58554;52.006;5.926;2023-05-09T03:23:47;100755.31;;;18.27;65.70
70909;BME280;58554;52.006;5.926;2023-05-09T03:26:16;100752.75;;;18.26;66.11
70909;BME280;58554;52.006;5.926;2023-05-09T03:28:43;100755.56;;;18.24;66.00
70909;BME280;58554;52.006;5.926;2023-05-09T03:31:10;100752.03;;;18.24;65.99
70909;BME280;58554;52.006;5.926;2023-05-09T03:33:36;100747.81;;;18.21;65.77
70909;BME280;58554;52.006;5.926;2023-05-09T03:36:03;100749.50;;;18.22;66.21
70909;BME280;58554;52.006;5.926;2023-05-09T03:38:30;100744.28;;;18.20;66.24
70909;BME280;58554;52.006;5.926;2023-05-09T03:40:56;100742.31;;;18.23;66.13
70909;BME280;58554;52.006;5.926;2023-05-09T03:43:25;100739.78;;;18.21;66.10
70909;BME280;58554;52.006;5.926;2023-05-09T03:45:52;100736.25;;;18.20;65.97
70909;BME280;58554;52.006;5.926;2023-05-09T03:48:18;100736.25;;;18.20;66.16
70909;BME280;58554;52.006;5.926;2023-05-09T03:50:45;100732.72;;;18.20;66.30
70909;BME280;58554;52.006;5.926;2023-05-09T03:53:12;100736.41;;;18.19;66.03
70909;BME280;58554;52.006;5.926;2023-05-09T03:55:38;100730.34;;;18.17;66.04
70909;BME280;58554;52.006;5.926;2023-05-09T03:58:05;100727.81;;;18.15;65.86
70909;BME280;58554;52.006;5.926;2023-05-09T04:00:34;100726.66;;;18.08;65.72
70909;BME280;58554;52.006;5.926;2023-05-09T04:03:01;100727.06;;;18.04;65.66
70909;BME280;58554;52.006;5.926;2023-05-09T04:05:28;100727.78;;;17.96;65.76
70909;BME280;58554;52.006;5.926;2023-05-09T04:07:55;100723.09;;;17.88;65.67
70909;BME280;58554;52.006;5.926;2023-05-09T04:10:22;100718.66;;;17.77;65.81
70909;BME280;58554;52.006;5.926;2023-05-09T04:12:48;100716.09;;;17.66;65.88
70909;BME280;58554;52.006;5.926;2023-05-09T04:15:16;100708.16;;;17.55;65.93
70909;BME280;58554;52.006;5.926;2023-05-09T04:17:45;100708.25;;;17.44;66.07
70909;BME280;58554;52.006;5.926;2023-05-09T04:20:12;100707.38;;;17.33;66.12
70909;BME280;58554;52.006;5.926;2023-05-09T04:22:38;100711.94;;;17.22;66.39
70909;BME280;58554;52.006;5.926;2023-05-09T04:25:06;100706.66;;;17.10;66.51
70909;BME280;58554;52.006;5.926;2023-05-09T04:27:33;100708.06;;;17.05;66.62
70909;BME280;58554;52.006;5.926;2023-05-09T04:29:59;100712.63;;;16.93;67.08
70909;BME280;58554;52.006;5.926;2023-05-09T04:32:26;100712.53;;;16.83;67.03
70909;BME280;58554;52.006;5.926;2023-05-09T04:34:55;100713.19;;;16.75;67.00
70909;BME280;58554;52.006;5.926;2023-05-09T04:37:22;100711.16;;;16.68;67.38
70909;BME280;58554;52.006;5.926;2023-05-09T04:39:48;100711.66;;;16.62;67.78
70909;BME280;58554;52.006;5.926;2023-05-09T04:42:14;100715.84;;;16.54;67.71
70909;BME280;58554;52.006;5.926;2023-05-09T04:44:41;100711.25;;;16.45;67.93
70909;BME280;58554;52.006;5.926;2023-05-09T04:47:07;100708.84;;;16.42;68.25
70909;BME280;58554;52.006;5.926;2023-05-09T04:49:34;100707.63;;;16.35;68.17
70909;BME280;58554;52.006;5.926;2023-05-09T04:52:04;100699.28;;;16.28;68.24
70909;BME280;58554;52.006;5.926;2023-05-09T04:54:30;100692.63;;;16.23;68.43
70909;BME280;58554;52.006;5.926;2023-05-09T04:56:57;100692.41;;;16.14;68.68
70909;BME280;58554;52.006;5.926;2023-05-09T04:59:23;100684.81;;;16.10;68.95
70909;BME280;58554;52.006;5.926;2023-05-09T05:01:50;100691.25;;;16.07;68.96
70909;BME280;58554;52.006;5.926;2023-05-09T05:04:17;100688.84;;;16.04;69.11
70909;BME280;58554;52.006;5.926;2023-05-09T05:06:43;100697.06;;;16.01;69.04
70909;BME280;58554;52.006;5.926;2023-05-09T05:09:12;100687.63;;;15.97;69.30
70909;BME280;58554;52.006;5.926;2023-05-09T05:11:39;100691.50;;;15.93;69.46
70909;BME280;58554;52.006;5.926;2023-05-09T05:14:06;100678.28;;;15.91;69.57
70909;BME280;58554;52.006;5.926;2023-05-09T05:16:32;100678.28;;;15.91;69.73
70909;BME280;58554;52.006;5.926;2023-05-09T05:18:59;100686.44;;;15.90;69.74
70909;BME280;58554;52.006;5.926;2023-05-09T05:21:25;100684.72;;;15.89;69.82
70909;BME280;58554;52.006;5.926;2023-05-09T05:23:52;100675.06;;;15.88;69.92
70909;BME280;58554;52.006;5.926;2023-05-09T05:26:21;100668.84;;;15.87;69.78
70909;BME280;58554;52.006;5.926;2023-05-09T05:28:47;100661.72;;;15.88;70.02
70909;BME280;58554;52.006;5.926;2023-05-09T05:31:14;100671.41;;;15.89;70.09
70909;BME280;58554;52.006;5.926;2023-05-09T05:33:40;100668.63;;;15.90;70.07
70909;BME280;58554;52.006;5.926;2023-05-09T05:36:08;100655.03;;;15.93;70.15
70909;BME280;58554;52.006;5.926;2023-05-09T05:38:34;100656.34;;;15.99;70.17
70909;BME280;58554;52.006;5.926;2023-05-09T05:41:01;100652.47;;;16.03;70.21
70909;BME280;58554;52.006;5.926;2023-05-09T05:43:30;100659.94;;;16.09;70.22
70909;BME280;58554;52.006;5.926;2023-05-09T05:45:57;100646.22;;;16.14;70.27
70909;BME280;58554;52.006;5.926;2023-05-09T05:48:26;100640.78;;;16.15;69.99
70909;BME280;58554;52.006;5.926;2023-05-09T05:50:55;100639.03;;;16.26;70.12
70909;BME280;58554;52.006;5.926;2023-05-09T05:53:22;100640.94;;;16.35;69.96
70909;BME280;58554;52.006;5.926;2023-05-09T05:55:49;100634.69;;;16.46;69.85
70909;BME280;58554;52.006;5.926;2023-05-09T05:58:15;100630.25;;;16.56;69.80
70909;BME280;58554;52.006;5.926;2023-05-09T06:00:44;100631.88;;;16.68;69.95
70909;BME280;58554;52.006;5.926;2023-05-09T06:03:11;100630.25;;;16.77;69.46
70909;BME280;58554;52.006;5.926;2023-05-09T06:05:40;100616.28;;;16.85;69.12
70909;BME280;58554;52.006;5.926;2023-05-09T06:08:07;100615.03;;;16.89;69.16
70909;BME280;58554;52.006;5.926;2023-05-09T06:10:34;100617.31;;;16.93;69.04
70909;BME280;58554;52.006;5.926;2023-05-09T06:13:04;100606.50;;;16.95;68.95
70909;BME280;58554;52.006;5.926;2023-05-09T06:15:32;100612.13;;;17.02;68.93
70909;BME280;58554;52.006;5.926;2023-05-09T06:18:04;100608.22;;;17.06;68.79
70909;BME280;58554;52.006;5.926;2023-05-09T06:20:34;100607.69;;;17.12;68.54
70909;BME280;58554;52.006;5.926;2023-05-09T06:23:00;100606.31;;;17.17;68.74
70909;BME280;58554;52.006;5.926;2023-05-09T06:25:27;100598.72;;;17.23;68.35
70909;BME280;58554;52.006;5.926;2023-05-09T06:27:54;100603.81;;;17.26;68.35
70909;BME280;58554;52.006;5.926;2023-05-09T06:30:20;100592.84;;;17.29;68.14
70909;BME280;58554;52.006;5.926;2023-05-09T06:32:47;100592.59;;;17.32;68.11
70909;BME280;58554;52.006;5.926;2023-05-09T06:35:17;100592.88;;;17.38;68.24
70909;BME280;58554;52.006;5.926;2023-05-09T06:37:48;100589.91;;;17.41;67.80
70909;BME280;58554;52.006;5.926;2023-05-09T06:40:14;100585.16;;;17.45;67.92
70909;BME280;58554;52.006;5.926;2023-05-09T06:42:41;100587.28;;;17.51;68.00
70909;BME280;58554;52.006;5.926;2023-05-09T06:45:09;100583.94;;;17.59;67.72
70909;BME280;58554;52.006;5.926;2023-05-09T06:47:36;100582.66;;;17.73;67.75
70909;BME280;58554;52.006;5.926;2023-05-09T06:50:03;100592.16;;;17.87;67.95
70909;BME280;58554;52.006;5.926;2023-05-09T06:52:33;100568.78;;;17.98;67.17
70909;BME280;58554;52.006;5.926;2023-05-09T06:55:00;100566.09;;;18.08;67.28
70909;BME280;58554;52.006;5.926;2023-05-09T06:57:27;100563.97;;;18.21;66.88
70909;BME280;58554;52.006;5.926;2023-05-09T06:59:54;100566.06;;;18.37;66.90
70909;BME280;58554;52.006;5.926;2023-05-09T07:02:21;100557.56;;;18.52;66.65
70909;BME280;58554;52.006;5.926;2023-05-09T07:04:47;100556.28;;;18.66;66.48
70909;BME280;58554;52.006;5.926;2023-05-09T07:07:14;100554.00;;;18.80;65.82
70909;BME280;58554;52.006;5.926;2023-05-09T07:09:45;100555.97;;;18.88;65.41
70909;BME280;58554;52.006;5.926;2023-05-09T07:12:12;100550.97;;;18.93;65.43
70909;BME280;58554;52.006;5.926;2023-05-09T07:14:40;100557.47;;;19.00;65.14
70909;BME280;58554;52.006;5.926;2023-05-09T07:17:07;100549.25;;;19.02;64.89
70909;BME280;58554;52.006;5.926;2023-05-09T07:19:33;100546.44;;;19.04;64.63
70909;BME280;58554;52.006;5.926;2023-05-09T07:22:00;100535.84;;;19.02;64.61
70909;BME280;58554;52.006;5.926;2023-05-09T07:24:27;100524.59;;;18.98;64.58
70909;BME280;58554;52.006;5.926;2023-05-09T07:26:56;100527.28;;;18.98;64.17
70909;BME280;58554;52.006;5.926;2023-05-09T07:29:23;100522.06;;;18.97;64.36
70909;BME280;58554;52.006;5.926;2023-05-09T07:31:49;100527.66;;;19.04;64.38
70909;BME280;58554;52.006;5.926;2023-05-09T07:34:16;100533.03;;;19.04;64.15
70909;BME280;58554;52.006;5.926;2023-05-09T07:36:43;100524.28;;;19.01;63.85
70909;BME280;58554;52.006;5.926;2023-05-09T07:39:09;100526.00;;;19.02;63.86
70909;BME280;58554;52.006;5.926;2023-05-09T07:41:36;100513.19;;;18.96;63.93
70909;BME280;58554;52.006;5.926;2023-05-09T07:44:06;100516.56;;;18.98;64.04
70909;BME280;58554;52.006;5.926;2023-05-09T07:46:32;100512.19;;;18.97;64.02
70909;BME280;58554;52.006;5.926;2023-05-09T07:48:59;100503.16;;;18.98;64.02
70909;BME280;58554;52.006;5.926;2023-05-09T07:51:26;100506.78;;;19.07;64.10
70909;BME280;58554;52.006;5.926;2023-05-09T07:53:52;100494.78;;;19.11;64.12
70909;BME280;58554;52.006;5.926;2023-05-09T07:56:19;100501.75;;;19.22;63.94
70909;BME280;58554;52.006;5.926;2023-05-09T07:58:45;100498.00;;;19.33;63.68
70909;BME280;58554;52.006;5.926;2023-05-09T08:01:15;100485.00;;;19.38;63.63
70909;BME280;58554;52.006;5.926;2023-05-09T08:03:41;100490.59;;;19.45;63.53
70909;BME280;58554;52.006;5.926;2023-05-09T08:06:08;100477.88;;;19.47;63.17
70909;BME280;58554;52.006;5.926;2023-05-09T08:08:35;100487.41;;;19.59;63.05
70909;BME280;58554;52.006;5.926;2023-05-09T08:11:03;100477.38;;;19.61;63.28
70909;BME280;58554;52.006;5.926;2023-05-09T08:13:30;100478.91;;;19.64;62.95
70909;BME280;58554;52.006;5.926;2023-05-09T08:15:57;100470.16;;;19.61;62.89
70909;BME280;58554;52.006;5.926;2023-05-09T08:18:26;100470.03;;;19.63;62.75
70909;BME280;58554;52.006;5.926;2023-05-09T08:20:59;100472.00;;;19.61;62.77
70909;BME280;58554;52.006;5.926;2023-05-09T08:23:25;100474.38;;;19.64;62.86
70909;BME280;58554;52.006;5.926;2023-05-09T08:25:52;100464.56;;;19.73;62.67
70909;BME280;58554;52.006;5.926;2023-05-09T08:28:22;100468.25;;;19.72;62.63
70909;BME280;58554;52.006;5.926;2023-05-09T08:30:49;100458.00;;;19.67;63.01
70909;BME280;58554;52.006;5.926;2023-05-09T08:33:16;100454.75;;;19.64;62.86
70909;BME280;58554;52.006;5.926;2023-05-09T08:35:49;100452.66;;;19.57;62.47
70909;BME280;58554;52.006;5.926;2023-05-09T08:38:17;100448.38;;;19.47;62.49
70909;BME280;58554;52.006;5.926;2023-05-09T08:40:45;100451.00;;;19.38;62.62
70909;BME280;58554;52.006;5.926;2023-05-09T08:43:12;100454.88;;;19.26;62.75
70909;BME280;58554;52.006;5.926;2023-05-09T08:45:45;100448.75;;;19.16;62.92
70909;BME280;58554;52.006;5.926;2023-05-09T08:48:16;100443.00;;;19.11;63.01
70909;BME280;58554;52.006;5.926;2023-05-09T08:50:46;100441.78;;;19.05;62.93
70909;BME280;58554;52.006;5.926;2023-05-09T08:53:13;100434.34;;;18.99;63.45
70909;BME280;58554;52.006;5.926;2023-05-09T08:55:40;100439.16;;;18.95;63.25
70909;BME280;58554;52.006;5.926;2023-05-09T08:58:08;100437.38;;;18.86;63.49
70909;BME280;58554;52.006;5.926;2023-05-09T09:00:35;100433.31;;;18.82;63.60
70909;BME280;58554;52.006;5.926;2023-05-09T09:03:03;100430.91;;;18.79;63.83
70909;BME280;58554;52.006;5.926;2023-05-09T09:05:32;100436.28;;;18.79;63.79
70909;BME280;58554;52.006;5.926;2023-05-09T09:08:06;100427.81;;;18.84;63.76
70909;BME280;58554;52.006;5.926;2023-05-09T09:10:34;100420.28;;;18.87;63.40
70909;BME280;58554;52.006;5.926;2023-05-09T09:13:02;100426.19;;;18.91;63.58
70909;BME280;58554;52.006;5.926;2023-05-09T09:15:33;100421.69;;;18.91;63.53
70909;BME280;58554;52.006;5.926;2023-05-09T09:18:05;100431.41;;;18.92;63.44
70909;BME280;58554;52.006;5.926;2023-05-09T09:20:34;100421.84;;;18.90;63.64
70909;BME280;58554;52.006;5.926;2023-05-09T09:23:08;100422.44;;;18.84;63.62
70909;BME280;58554;52.006;5.926;2023-05-09T09:25:35;100425.72;;;18.77;63.75
70909;BME280;58554;52.006;5.926;2023-05-09T09:28:02;100414.75;;;18.71;63.84
70909;BME280;58554;52.006;5.926;2023-05-09T09:30:29;100419.13;;;18.62;63.90
70909;BME280;58554;52.006;5.926;2023-05-09T09:32:58;100412.84;;;18.53;64.01
70909;BME280;58554;52.006;5.926;2023-05-09T09:35:24;100413.88;;;18.42;63.97
70909;BME280;58554;52.006;5.926;2023-05-09T09:37:55;100414.09;;;18.31;64.23
70909;BME280;58554;52.006;5.926;2023-05-09T09:40:25;100413.53;;;18.28;64.44
70909;BME280;58554;52.006;5.926;2023-05-09T09:42:52;100424.69;;;18.23;64.53
70909;BME280;58554;52.006;5.926;2023-05-09T09:45:19;100416.94;;;18.20;64.77
70909;BME280;58554;52.006;5.926;2023-05-09T09:47:46;100415.53;;;18.16;64.64
70909;BME280;58554;52.006;5.926;2023-05-09T09:50:16;100418.06;;;18.17;64.79
70909;BME280;58554;52.006;5.926;2023-05-09T09:52:48;100416.47;;;18.25;65.12
70909;BME280;58554;52.006;5.926;2023-05-09T09:55:16;100406.47;;;18.27;64.72
70909;BME280;58554;52.006;5.926;2023-05-09T09:57:45;100406.59;;;18.35;64.91
70909;BME280;58554;52.006;5.926;2023-05-09T10:00:14;100398.19;;;18.48;64.65
70909;BME280;58554;52.006;5.926;2023-05-09T10:02:46;100388.28;;;18.58;64.45
70909;BME280;58554;52.006;5.926;2023-05-09T10:05:18;100391.34;;;18.73;64.43
70909;BME280;58554;52.006;5.926;2023-05-09T10:07:55;100388.16;;;18.87;64.18
70909;BME280;58554;52.006;5.926;2023-05-09T10:10:25;100391.13;;;19.02;64.06
70909;BME280;58554;52.006;5.926;2023-05-09T10:12:57;100396.53;;;19.20;64.00
70909;BME280;58554;52.006;5.926;2023-05-09T10:15:25;100393.31;;;19.34;63.53
70909;BME280;58554;52.006;5.926;2023-05-09T10:17:56;100395.59;;;19.47;63.26
70909;BME280;58554;52.006;5.926;2023-05-09T10:20:24;100384.66;;;19.58;62.97
70909;BME280;58554;52.006;5.926;2023-05-09T10:22:56;100388.94;;;19.69;62.83
70909;BME280;58554;52.006;5.926;2023-05-09T10:25:28;100381.28;;;19.82;62.58
70909;BME280;58554;52.006;5.926;2023-05-09T10:28:09;100377.06;;;19.98;62.04
70909;BME280;58554;52.006;5.926;2023-05-09T10:30:47;100378.91;;;20.06;61.64
70909;BME280;58554;52.006;5.926;2023-05-09T10:33:23;100360.97;;;20.06;61.49
70909;BME280;58554;52.006;5.926;2023-05-09T10:35:57;100359.63;;;20.10;61.68
70909;BME280;58554;52.006;5.926;2023-05-09T10:38:26;100351.13;;;20.15;61.56
70909;BME280;58554;52.006;5.926;2023-05-09T10:40:54;100353.84;;;20.23;61.23
70909;BME280;58554;52.006;5.926;2023-05-09T10:43:25;100347.50;;;20.32;61.38
70909;BME280;58554;52.006;5.926;2023-05-09T10:45:53;100349.09;;;20.43;61.25
70909;BME280;58554;52.006;5.926;2023-05-09T10:48:20;100339.53;;;20.49;60.88
70909;BME280;58554;52.006;5.926;2023-05-09T10:50:48;100347.44;;;20.50;60.89
70909;BME280;58554;52.006;5.926;2023-05-09T10:53:15;100338.19;;;20.45;60.54
70909;BME280;58554;52.006;5.926;2023-05-09T10:55:50;100341.63;;;20.37;60.84
70909;BME280;58554;52.006;5.926;2023-05-09T10:58:22;100335.75;;;20.25;61.06
70909;BME280;58554;52.006;5.926;2023-05-09T11:00:54;100344.25;;;20.20;61.32
70909;BME280;58554;52.006;5.926;2023-05-09T11:03:23;100341.22;;;20.15;61.34
70909;BME280;58554;52.006;5.926;2023-05-09T11:05:54;100339.19;;;20.09;61.58
70909;BME280;58554;52.006;5.926;2023-05-09T11:08:24;100343.16;;;19.97;61.73
70909;BME280;58554;52.006;5.926;2023-05-09T11:10:53;100336.06;;;19.88;61.97
70909;BME280;58554;52.006;5.926;2023-05-09T11:13:22;100334.47;;;19.77;61.90
70909;BME280;58554;52.006;5.926;2023-05-09T11:16:03;100336.78;;;19.72;62.37
70909;BME280;58554;52.006;5.926;2023-05-09T11:18:31;100336.44;;;19.67;62.78
70909;BME280;58554;52.006;5.926;2023-05-09T11:21:00;100332.53;;;19.61;62.57
70909;BME280;58554;52.006;5.926;2023-05-09T11:23:33;100322.69;;;19.52;62.52
70909;BME280;58554;52.006;5.926;2023-05-09T11:26:04;100326.19;;;19.44;62.84
70909;BME280;58554;52.006;5.926;2023-05-09T11:28:34;100329.09;;;19.33;62.77
70909;BME280;58554;52.006;5.926;2023-05-09T11:31:12;100329.03;;;19.25;63.43
70909;BME280;58554;52.006;5.926;2023-05-09T11:33:41;100323.78;;;19.15;63.41
70909;BME280;58554;52.006;5.926;2023-05-09T11:36:16;100322.00;;;19.06;63.58
70909;BME280;58554;52.006;5.926;2023-05-09T11:38:45;100321.25;;;18.95;63.96
70909;BME280;58554;52.006;5.926;2023-05-09T11:41:13;100318.66;;;18.86;63.94
70909;BME280;58554;52.006;5.926;2023-05-09T11:43:43;100317.03;;;18.75;64.04
70909;BME280;58554;52.006;5.926;2023-05-09T11:46:12;100313.25;;;18.68;64.51
70909;BME280;58554;52.006;5.926;2023-05-09T11:48:39;100313.16;;;18.59;64.28
70909;BME280;58554;52.006;5.926;2023-05-09T11:51:06;100309.16;;;18.46;64.33
70909;BME280;58554;52.006;5.926;2023-05-09T11:53:33;100313.59;;;18.37;64.73
70909;BME280;58554;52.006;5.926;2023-05-09T11:56:01;100301.66;;;18.31;64.87
70909;BME280;58554;52.006;5.926;2023-05-09T11:58:29;100305.63;;;18.27;64.95
70909;BME280;58554;52.006;5.926;2023-05-09T12:00:56;100300.41;;;18.26;65.21
70909;BME280;58554;52.006;5.926;2023-05-09T12:03:28;100292.66;;;18.23;65.22
70909;BME280;58554;52.006;5.926;2023-05-09T12:05:55;100295.22;;;18.24;65.26
70909;BME280;58554;52.006;5.926;2023-05-09T12:08:23;100287.72;;;18.28;65.47
70909;BME280;58554;52.006;5.926;2023-05-09T12:10:50;100274.03;;;18.31;65.41
70909;BME280;58554;52.006;5.926;2023-05-09T12:13:17;100282.75;;;18.33;65.42
70909;BME280;58554;52.006;5.926;2023-05-09T12:15:43;100276.28;;;18.35;65.93
70909;BME280;58554;52.006;5.926;2023-05-09T12:18:10;100274.44;;;18.36;65.62
70909;BME280;58554;52.006;5.926;2023-05-09T12:20:43;100280.16;;;18.41;65.96
70909;BME280;58554;52.006;5.926;2023-05-09T12:23:13;100281.00;;;18.41;66.05
70909;BME280;58554;52.006;5.926;2023-05-09T12:25:46;100274.53;;;18.44;66.17
70909;BME280;58554;52.006;5.926;2023-05-09T12:28:13;100273.66;;;18.44;65.97
70909;BME280;58554;52.006;5.926;2023-05-09T12:30:41;100261.28;;;18.42;65.83
70909;BME280;58554;52.006;5.926;2023-05-09T12:33:09;100260.59;;;18.40;65.72
70909;BME280;58554;52.006;5.926;2023-05-09T12:35:36;100263.28;;;18.40;65.91
70909;BME280;58554;52.006;5.926;2023-05-09T12:38:08;100262.94;;;18.44;65.66
70909;BME280;58554;52.006;5.926;2023-05-09T12:40:34;100264.09;;;18.41;65.50
70909;BME280;58554;52.006;5.926;2023-05-09T12:43:01;100260.75;;;18.39;65.74
70909;BME280;58554;52.006;5.926;2023-05-09T12:45:30;100252.00;;;18.37;65.29
70909;BME280;58554;52.006;5.926;2023-05-09T12:47:57;100249.78;;;18.32;65.39
70909;BME280;58554;52.006;5.926;2023-05-09T12:50:30;100250.13;;;18.29;65.57
70909;BME280;58554;52.006;5.926;2023-05-09T12:53:01;100253.06;;;18.26;65.40
70909;BME280;58554;52.006;5.926;2023-05-09T12:55:37;100248.19;;;18.21;65.59
70909;BME280;58554;52.006;5.926;2023-05-09T12:58:04;100245.97;;;18.17;65.89